Time;durP1;ratioP1;P1;durP2;ratioP2;P2;SDS_P1;SDS_P2;PMS_P1;PMS_P2;Temp;Humidity;BMP_temperature;BMP_pressure;BME280_temperature;BME280_humidity;BME280_pressure;Samples;Min_cycle;Max_cycle;Signal;HPM_P1;HPM_P2
2022/05/23 00:00:24;;;;;;;6.93;1.92;;;14.70;99.90;;;;;;5021085;28;20081;-68
2022/05/23 00:02:50;;;;;;;3.25;1.92;;;14.80;99.90;;;;;;5017631;28;20091;-68
2022/05/23 00:05:17;;;;;;;11.30;1.75;;;14.70;99.90;;;;;;5015254;28;20056;-69
2022/05/23 00:07:46;;;;;;;4.57;1.40;;;14.70;99.90;;;;;;5019098;28;20502;-69
2022/05/23 00:10:14;;;;;;;14.00;2.28;;;14.60;99.90;;;;;;5012456;28;20125;-69
2022/05/23 00:12:40;;;;;;;4.30;1.80;;;14.60;99.90;;;;;;5021068;28;20092;-68
2022/05/23 00:15:08;;;;;;;3.35;1.60;;;14.60;99.90;;;;;;5013803;28;20471;-69
2022/05/23 00:17:35;;;;;;;2.88;1.67;;;14.60;99.90;;;;;;5019404;28;20054;-69
2022/05/23 00:20:02;;;;;;;2.47;1.75;;;14.60;99.90;;;;;;5020357;28;20041;-69
2022/05/23 00:22:28;;;;;;;2.72;1.52;;;14.50;99.90;;;;;;5019504;28;20049;-68
2022/05/23 00:24:54;;;;;;;3.15;1.17;;;14.50;99.90;;;;;;5014391;28;20488;-68
2022/05/23 00:27:22;;;;;;;4.60;1.60;;;14.50;99.90;;;;;;5015946;28;20057;-68
2022/05/23 00:29:49;;;;;;;17.48;2.05;;;14.40;99.90;;;;;;5015119;28;20306;-68
2022/05/23 00:35:17;;;;;;;3.20;1.45;;;14.30;99.90;;;;;;5015291;28;20049;-69
2022/05/23 00:37:44;;;;;;;2.55;1.20;;;14.30;99.90;;;;;;5021232;28;20431;-68
2022/05/23 00:40:41;;;;;;;4.25;1.55;;;14.20;99.90;;;;;;5024752;28;20045;-68
2022/05/23 00:43:23;;;;;;;3.75;1.52;;;14.20;99.90;;;;;;5022416;28;20050;-68
2022/05/23 00:46:02;;;;;;;1.98;1.33;;;14.20;99.90;;;;;;5022253;28;20049;-68
2022/05/23 00:48:29;;;;;;;2.30;1.27;;;14.20;99.90;;;;;;5026105;28;20055;-68
2022/05/23 00:51:07;;;;;;;3.92;1.50;;;14.10;99.90;;;;;;5024377;28;20046;-69
2022/05/23 00:53:40;;;;;;;2.88;1.60;;;14.00;99.90;;;;;;5023378;28;20051;-69
2022/05/23 00:56:08;;;;;;;1.63;1.35;;;14.00;99.90;;;;;;5023176;28;20041;-69
2022/05/23 00:58:39;;;;;;;3.97;1.80;;;14.00;99.90;;;;;;5024443;28;20041;-69
2022/05/23 01:01:08;;;;;;;1.77;1.40;;;13.90;99.90;;;;;;5022917;28;20054;-69
2022/05/23 01:03:34;;;;;;;3.50;1.48;;;13.90;99.90;;;;;;5023614;28;20056;-69
2022/05/23 01:06:00;;;;;;;3.28;1.60;;;13.80;99.90;;;;;;5024407;28;20037;-68
2022/05/23 01:08:26;;;;;;;5.65;1.60;;;13.80;99.90;;;;;;5025030;28;20091;-68
2022/05/23 01:10:52;;;;;;;3.58;1.90;;;13.80;99.90;;;;;;5025031;28;20157;-68
2022/05/23 01:13:18;;;;;;;6.57;2.30;;;13.70;99.90;;;;;;5023507;28;20426;-68
2022/05/23 01:15:47;;;;;;;4.10;1.98;;;13.60;99.90;;;;;;5024515;28;20116;-68
2022/05/23 01:18:13;;;;;;;3.90;2.15;;;13.60;99.90;;;;;;5024397;28;20055;-68
2022/05/23 01:20:39;;;;;;;4.28;1.95;;;13.60;99.90;;;;;;5023343;28;20077;-68
2022/05/23 01:23:31;;;;;;;10.05;2.40;;;13.50;99.90;;;;;;5024424;28;20531;-68
2022/05/23 01:25:59;;;;;;;4.72;1.90;;;13.50;99.90;;;;;;5025693;28;20045;-68
2022/05/23 01:28:25;;;;;;;3.42;2.38;;;13.40;99.90;;;;;;5024264;28;20041;-68
2022/05/23 01:30:51;;;;;;;6.53;2.97;;;13.40;99.90;;;;;;5025171;28;20391;-68
2022/05/23 01:33:17;;;;;;;5.22;2.63;;;13.30;99.90;;;;;;5023993;28;20052;-69
2022/05/23 01:35:43;;;;;;;9.88;2.58;;;13.20;99.90;;;;;;5023196;28;20077;-68
2022/05/23 01:38:09;;;;;;;5.28;2.25;;;13.30;99.90;;;;;;5024098;28;20380;-68
2022/05/23 01:40:35;;;;;;;5.75;2.55;;;13.20;99.90;;;;;;5024490;28;20044;-68
2022/05/23 01:43:01;;;;;;;4.38;2.47;;;13.20;99.90;;;;;;5023363;28;20399;-68
2022/05/23 01:45:29;;;;;;;2.97;2.47;;;13.20;99.90;;;;;;5024698;28;20041;-68
2022/05/23 01:47:56;;;;;;;9.27;2.92;;;13.20;99.90;;;;;;5024083;28;20248;-68
2022/05/23 01:50:23;;;;;;;7.20;2.83;;;13.20;99.90;;;;;;5022907;28;20049;-68
2022/05/23 01:52:50;;;;;;;4.55;2.78;;;13.20;99.90;;;;;;5024674;28;20049;-68
2022/05/23 01:55:16;;;;;;;6.07;2.80;;;13.20;99.90;;;;;;5023116;28;20041;-68
2022/05/23 01:57:42;;;;;;;3.45;2.13;;;13.20;99.90;;;;;;5024960;28;20064;-68
2022/05/23 02:02:56;;;;;;;9.40;2.78;;;13.20;99.90;;;;;;5019894;28;20038;-68
2022/05/23 02:05:22;;;;;;;4.38;2.50;;;13.20;99.90;;;;;;5022486;28;20540;-68
2022/05/23 02:07:47;;;;;;;4.68;2.47;;;13.20;99.90;;;;;;5024836;28;20046;-68
2022/05/23 02:10:14;;;;;;;4.38;2.83;;;13.20;99.90;;;;;;5021763;28;20095;-68
2022/05/23 02:12:43;;;;;;;4.68;2.45;;;13.20;99.90;;;;;;5024568;28;20559;-68
2022/05/23 02:15:08;;;;;;;4.13;2.38;;;13.20;99.90;;;;;;5022277;28;20045;-68
2022/05/23 02:17:34;;;;;;;7.60;3.28;;;13.20;99.90;;;;;;5023688;28;20395;-68
2022/05/23 02:20:00;;;;;;;4.18;2.50;;;13.30;99.90;;;;;;5024327;28;20470;-69
2022/05/23 02:22:25;;;;;;;3.75;2.90;;;13.30;99.90;;;;;;5022700;28;20076;-68
2022/05/23 02:24:51;;;;;;;5.40;3.08;;;13.30;99.90;;;;;;5022340;28;20045;-68
2022/05/23 02:27:16;;;;;;;3.20;2.55;;;13.30;99.90;;;;;;5025697;28;20832;-68
2022/05/23 02:29:42;;;;;;;5.70;2.60;;;13.30;99.90;;;;;;5026347;28;20730;-68
2022/05/23 02:32:08;;;;;;;5.05;2.60;;;13.30;99.90;;;;;;5025051;28;20068;-69
2022/05/23 02:34:34;;;;;;;3.58;2.47;;;13.30;99.90;;;;;;5027757;28;20120;-68
2022/05/23 02:37:00;;;;;;;3.33;2.38;;;13.30;99.90;;;;;;5027108;28;20140;-69
2022/05/23 02:39:26;;;;;;;6.30;3.20;;;13.30;99.90;;;;;;5036372;28;20041;-68
2022/05/23 02:41:51;;;;;;;2.70;2.40;;;13.30;99.90;;;;;;5026419;28;20483;-68
2022/05/23 02:44:17;;;;;;;5.88;3.10;;;13.30;99.90;;;;;;5023803;28;20851;-68
2022/05/23 02:46:43;;;;;;;3.58;2.75;;;13.20;99.90;;;;;;5026026;28;20041;-68
2022/05/23 02:49:09;;;;;;;4.63;2.75;;;13.20;99.90;;;;;;5026724;28;20037;-68
2022/05/23 02:51:34;;;;;;;6.38;3.47;;;13.20;99.90;;;;;;5024631;28;20128;-68
2022/05/23 02:54:00;;;;;;;8.75;3.63;;;13.20;99.90;;;;;;5026009;28;20045;-68
2022/05/23 02:56:26;;;;;;;4.53;3.33;;;13.20;99.90;;;;;;5026179;28;20424;-68
2022/05/23 02:58:51;;;;;;;3.65;3.35;;;13.20;99.90;;;;;;5026698;28;20507;-68
2022/05/23 03:01:17;;;;;;;4.90;3.17;;;13.10;99.90;;;;;;5026028;28;20586;-68
2022/05/23 03:03:42;;;;;;;5.65;3.33;;;13.10;99.90;;;;;;5025927;28;20049;-68
2022/05/23 03:06:08;;;;;;;7.63;4.03;;;13.10;99.90;;;;;;5026201;28;20098;-68
2022/05/23 03:08:35;;;;;;;4.15;3.30;;;13.00;99.90;;;;;;5026627;28;20061;-68
2022/05/23 03:11:04;;;;;;;5.90;3.65;;;13.00;99.90;;;;;;5025828;28;20124;-68
2022/05/23 03:13:30;;;;;;;8.43;3.78;;;13.10;99.90;;;;;;5024797;28;20052;-69
2022/05/23 03:15:57;;;;;;;8.20;3.50;;;13.10;99.90;;;;;;5027616;28;20041;-68
2022/05/23 03:18:24;;;;;;;6.65;3.75;;;13.10;99.90;;;;;;5026095;28;20041;-68
2022/05/23 03:26:58;;;;;;;5.88;3.70;;;13.00;99.90;;;;;;5026610;28;20045;-68
2022/05/23 03:27:00;;;;;;;8.30;3.70;;;13.00;99.90;;;;;;5025216;28;20045;-68
2022/05/23 03:29:30;;;;;;;4.53;2.85;;;12.90;99.90;;;;;;5025135;28;22097;-68
2022/05/23 03:31:56;;;;;;;7.95;4.18;;;12.90;99.90;;;;;;5026838;28;20037;-68
2022/05/23 03:34:22;;;;;;;5.97;3.30;;;12.90;99.90;;;;;;5024864;28;20514;-68
2022/05/23 03:36:47;;;;;;;6.13;3.80;;;12.90;99.90;;;;;;5025960;28;20077;-68
2022/05/23 03:39:13;;;;;;;6.05;4.18;;;12.90;99.90;;;;;;5024912;28;20052;-68
2022/05/23 03:41:38;;;;;;;9.32;4.18;;;12.90;99.90;;;;;;5026178;28;20076;-68
2022/05/23 03:44:08;;;;;;;4.55;3.63;;;12.90;99.90;;;;;;5026300;28;20430;-69
2022/05/23 03:46:35;;;;;;;8.15;3.78;;;12.90;99.90;;;;;;5026101;28;20525;-68
2022/05/23 03:49:01;;;;;;;5.13;4.55;;;12.90;99.90;;;;;;5025440;28;20044;-69
2022/05/23 03:51:27;;;;;;;4.40;4.00;;;12.90;99.90;;;;;;5026248;28;20053;-68
2022/05/23 03:53:53;;;;;;;7.55;3.58;;;12.90;99.90;;;;;;5024899;28;20045;-68
2022/05/23 03:56:18;;;;;;;6.00;4.30;;;13.00;99.90;;;;;;5024879;28;20441;-68
2022/05/23 03:58:44;;;;;;;4.20;3.80;;;13.00;99.90;;;;;;5026571;28;20037;-68
2022/05/23 04:01:16;;;;;;;4.60;4.10;;;13.00;99.90;;;;;;5025342;28;20454;-68
2022/05/23 04:03:42;;;;;;;9.05;4.80;;;13.10;99.90;;;;;;5025957;28;20086;-68
2022/05/23 04:06:08;;;;;;;6.50;4.03;;;13.00;99.90;;;;;;5023830;28;20499;-69
2022/05/23 04:08:34;;;;;;;4.30;3.75;;;13.10;99.90;;;;;;5023806;28;20056;-69
2022/05/23 04:11:00;;;;;;;8.88;4.70;;;13.10;99.90;;;;;;5023685;28;20042;-69
2022/05/23 04:13:29;;;;;;;7.72;4.35;;;13.10;99.90;;;;;;5025738;28;20450;-68
2022/05/23 04:15:55;;;;;;;9.02;4.35;;;13.00;99.90;;;;;;5025635;28;20128;-68
2022/05/23 04:18:21;;;;;;;7.30;4.47;;;13.00;99.90;;;;;;5024940;28;20132;-68
2022/05/23 04:20:47;;;;;;;5.80;3.95;;;13.00;99.90;;;;;;5025147;28;20041;-69
2022/05/23 04:23:16;;;;;;;8.82;4.05;;;13.10;99.90;;;;;;5023740;28;20061;-68
2022/05/23 04:25:47;;;;;;;8.15;4.32;;;13.00;99.90;;;;;;5026188;28;20061;-68
2022/05/23 04:28:14;;;;;;;11.57;3.90;;;13.10;99.90;;;;;;5025121;28;20072;-68
2022/05/23 04:30:40;;;;;;;5.00;4.05;;;13.10;99.90;;;;;;5024819;28;20578;-68
2022/05/23 04:35:51;;;;;;;5.75;3.88;;;13.20;99.90;;;;;;5024246;28;20049;-68
2022/05/23 04:38:18;;;;;;;7.75;4.40;;;13.20;99.90;;;;;;5022194;28;20046;-68
2022/05/23 04:40:44;;;;;;;13.07;4.57;;;13.20;99.90;;;;;;5025419;28;20052;-68
2022/05/23 04:43:12;;;;;;;8.52;4.25;;;13.20;99.90;;;;;;5023608;28;20430;-68
2022/05/23 04:45:41;;;;;;;5.78;3.90;;;14.30;99.90;;;;;;5024238;28;20061;-68
2022/05/23 04:50:51;;;;;;;7.32;3.85;;;13.30;99.90;;;;;;5022061;28;20049;-68
2022/05/23 04:53:17;;;;;;;8.52;4.28;;;13.40;99.90;;;;;;5024418;28;20045;-68
2022/05/23 04:55:43;;;;;;;5.60;3.75;;;13.50;99.90;;;;;;5025477;28;20612;-68
2022/05/23 04:58:10;;;;;;;3.95;3.00;;;13.50;99.90;;;;;;5021884;28;20085;-68
2022/05/23 05:00:39;;;;;;;5.82;3.40;;;13.60;99.90;;;;;;5023827;28;20045;-69
2022/05/23 05:03:05;;;;;;;6.22;3.65;;;13.70;99.90;;;;;;5024772;28;20052;-68
2022/05/23 05:05:33;;;;;;;5.90;3.55;;;13.70;99.90;;;;;;5023987;28;20487;-69
2022/05/23 05:08:00;;;;;;;3.72;3.15;;;13.80;99.90;;;;;;5025190;28;20136;-69
2022/05/23 05:10:26;;;;;;;3.88;3.03;;;13.90;99.90;;;;;;5024987;28;20398;-68
2022/05/23 05:12:53;;;;;;;7.15;3.40;;;13.90;99.90;;;;;;5022873;28;20495;-68
2022/05/23 05:15:19;;;;;;;7.50;3.67;;;14.00;99.90;;;;;;5024333;28;20133;-69
2022/05/23 05:17:45;;;;;;;7.18;3.85;;;14.00;99.90;;;;;;5024895;28;20092;-69
2022/05/23 05:20:12;;;;;;;4.68;3.40;;;14.10;99.90;;;;;;5023419;28;20033;-69
2022/05/23 05:22:38;;;;;;;5.40;3.85;;;14.10;99.90;;;;;;5025373;28;20068;-68
2022/05/23 05:25:05;;;;;;;5.32;3.45;;;14.10;99.90;;;;;;5024245;28;20042;-69
2022/05/23 05:27:31;;;;;;;6.40;3.45;;;14.10;99.90;;;;;;5022645;28;20373;-68
2022/05/23 05:29:57;;;;;;;5.05;3.45;;;14.20;99.90;;;;;;5025282;28;20049;-69
2022/05/23 05:32:28;;;;;;;9.35;3.58;;;13.30;99.90;;;;;;5023573;28;20049;-69
2022/05/23 05:34:59;;;;;;;5.28;3.53;;;14.20;99.90;;;;;;5023174;28;20053;-69
2022/05/23 05:37:33;;;;;;;5.88;3.45;;;14.20;99.90;;;;;;5024855;28;20048;-69
2022/05/23 05:40:02;;;;;;;4.95;3.40;;;14.20;99.90;;;;;;5023389;28;20049;-69
2022/05/23 05:42:31;;;;;;;5.30;3.70;;;14.30;99.90;;;;;;5024620;28;20045;-69
2022/05/23 05:45:07;;;;;;;5.70;3.63;;;14.20;99.90;;;;;;5024569;28;20108;-68
2022/05/23 05:47:35;;;;;;;7.32;4.15;;;14.30;99.90;;;;;;5024045;28;20119;-69
2022/05/23 05:50:09;;;;;;;4.82;4.07;;;14.30;99.90;;;;;;5024768;28;20095;-69
2022/05/23 05:52:35;;;;;;;5.68;3.20;;;14.30;99.90;;;;;;5023008;28;20118;-69
2022/05/23 05:55:03;;;;;;;8.05;4.18;;;14.30;99.90;;;;;;5024063;28;20103;-69
2022/05/23 05:57:29;;;;;;;4.85;4.03;;;14.30;99.90;;;;;;5024321;28;20046;-69
2022/05/23 05:59:55;;;;;;;6.38;4.30;;;14.40;99.90;;;;;;5023499;28;20127;-69
2022/05/23 06:02:20;;;;;;;6.50;3.83;;;14.40;99.90;;;;;;5025402;28;20176;-68
2022/05/23 06:04:46;;;;;;;10.45;4.70;;;14.50;99.90;;;;;;5028889;28;20403;-69
2022/05/23 06:12:56;;;;;;;3.95;3.50;;;14.60;99.90;;;;;;5027537;28;20058;-68
2022/05/23 06:15:22;;;;;;;8.43;4.05;;;14.60;99.90;;;;;;5026557;28;20107;-69
2022/05/23 06:17:48;;;;;;;9.50;4.30;;;14.70;99.90;;;;;;5028307;28;20124;-68
2022/05/23 06:20:14;;;;;;;7.45;4.00;;;14.70;99.90;;;;;;5025912;28;20136;-69
2022/05/23 06:22:40;;;;;;;7.05;3.78;;;14.80;99.90;;;;;;5026371;28;20052;-69
2022/05/23 06:25:08;;;;;;;8.43;4.35;;;14.90;99.90;;;;;;5027708;28;20045;-68
2022/05/23 06:27:34;;;;;;;7.38;4.40;;;14.90;99.90;;;;;;5027544;28;20060;-69
2022/05/23 06:29:59;;;;;;;6.90;4.57;;;15.00;99.90;;;;;;5026362;28;20041;-69
2022/05/23 06:32:25;;;;;;;5.75;4.25;;;15.00;99.90;;;;;;5027676;28;20148;-68
2022/05/23 06:34:50;;;;;;;7.78;3.78;;;15.10;99.90;;;;;;5029843;28;20496;-69
2022/05/23 06:37:16;;;;;;;6.05;4.20;;;15.10;99.90;;;;;;5026229;28;20076;-68
2022/05/23 06:39:42;;;;;;;7.70;4.18;;;15.20;99.90;;;;;;5026656;28;20053;-68
2022/05/23 06:42:08;;;;;;;6.47;3.90;;;15.20;99.90;;;;;;5027120;28;20483;-69
2022/05/23 06:44:34;;;;;;;4.70;3.80;;;15.40;99.90;;;;;;5026142;28;20523;-69
2022/05/23 06:47:00;;;;;;;8.38;3.53;;;15.20;99.90;;;;;;5025915;28;20071;-69
2022/05/23 06:49:26;;;;;;;7.43;4.63;;;15.30;99.90;;;;;;5025483;28;20050;-68
2022/05/23 06:51:52;;;;;;;9.20;4.32;;;15.40;99.90;;;;;;5026028;28;20037;-69
2022/05/23 06:54:19;;;;;;;5.72;4.25;;;15.40;99.90;;;;;;5025704;28;20049;-69
2022/05/23 06:56:45;;;;;;;6.70;4.22;;;15.50;99.90;;;;;;5025800;28;20359;-69
2022/05/23 06:59:12;;;;;;;5.18;3.85;;;15.50;99.90;;;;;;5023639;28;20400;-68
2022/05/23 07:01:38;;;;;;;5.57;3.78;;;15.50;99.90;;;;;;5025303;28;20066;-68
2022/05/23 07:04:04;;;;;;;6.20;3.97;;;15.50;99.90;;;;;;5023920;28;20053;-69
2022/05/23 07:14:42;;;;;;;5.85;4.20;;;15.70;99.90;;;;;;5025009;28;20046;-69
2022/05/23 07:17:08;;;;;;;5.55;4.78;;;15.80;99.90;;;;;;5026151;28;20514;-69
2022/05/23 07:19:36;;;;;;;5.47;4.03;;;15.90;99.90;;;;;;5024931;28;20419;-69
2022/05/23 07:22:05;;;;;;;7.20;4.47;;;16.10;99.90;;;;;;5024247;28;20054;-69
2022/05/23 07:24:31;;;;;;;7.07;3.78;;;16.10;99.90;;;;;;5032382;28;20052;-69
2022/05/23 07:27:00;;;;;;;7.55;4.10;;;16.30;99.90;;;;;;5025924;28;20033;-68
2022/05/23 07:29:28;;;;;;;8.20;4.07;;;16.30;99.90;;;;;;5026805;28;20041;-69
2022/05/23 07:31:54;;;;;;;6.03;4.32;;;16.40;99.90;;;;;;5026290;28;20511;-69
2022/05/23 07:34:20;;;;;;;5.65;4.25;;;16.40;99.90;;;;;;5024452;28;20093;-69
2022/05/23 07:36:48;;;;;;;4.72;4.32;;;16.50;99.90;;;;;;5024596;28;20069;-68
2022/05/23 07:39:14;;;;;;;8.68;4.65;;;16.50;99.90;;;;;;5024652;28;20052;-69
2022/05/23 07:41:44;;;;;;;5.60;4.10;;;16.50;99.90;;;;;;5026102;28;20041;-69
2022/05/23 07:44:11;;;;;;;7.65;3.95;;;16.60;99.90;;;;;;5021067;28;20459;-69
2022/05/23 07:46:42;;;;;;;9.52;4.15;;;16.70;99.90;;;;;;5024397;28;20570;-69
2022/05/23 07:49:08;;;;;;;8.25;4.53;;;16.70;99.90;;;;;;5023909;28;20083;-69
2022/05/23 07:51:33;;;;;;;8.23;4.95;;;16.80;99.90;;;;;;5023882;28;20073;-72
2022/05/23 08:02:17;;;;;;;8.60;4.70;;;17.20;99.90;;;;;;5044050;28;20155;-68
2022/05/23 08:04:43;;;;;;;9.27;4.90;;;17.30;99.90;;;;;;5026943;28;20046;-68
2022/05/23 08:07:09;;;;;;;6.72;4.63;;;17.50;99.90;;;;;;5022832;28;20399;-68
2022/05/23 08:09:36;;;;;;;7.00;4.75;;;17.60;99.90;;;;;;5019018;28;20787;-67
2022/05/23 08:12:03;;;;;;;7.63;4.82;;;17.60;99.90;;;;;;5025911;28;20044;-67
2022/05/23 08:14:29;;;;;;;9.07;5.03;;;17.70;99.90;;;;;;5025105;28;20045;-69
2022/05/23 08:16:54;;;;;;;10.80;4.45;;;17.80;99.90;;;;;;5026594;28;20493;-69
2022/05/23 08:19:20;;;;;;;7.93;4.38;;;18.00;99.90;;;;;;5025711;28;20096;-68
2022/05/23 08:21:49;;;;;;;5.53;4.40;;;18.10;99.90;;;;;;5025784;28;20033;-69
2022/05/23 08:24:15;;;;;;;5.97;4.65;;;18.20;99.90;;;;;;5025640;28;20479;-68
2022/05/23 08:26:40;;;;;;;6.47;4.35;;;18.30;99.90;;;;;;5026528;28;20040;-67
2022/05/23 08:29:06;;;;;;;5.15;4.22;;;18.40;99.90;;;;;;5023384;28;20412;-68
2022/05/23 08:31:32;;;;;;;4.63;4.22;;;18.50;99.90;;;;;;5022309;28;20498;-69
2022/05/23 08:33:58;;;;;;;5.60;3.67;;;18.70;99.90;;;;;;5025805;28;20128;-68
2022/05/23 08:36:26;;;;;;;4.70;4.15;;;18.80;99.90;;;;;;5025370;28;20045;-68
2022/05/23 08:38:52;;;;;;;9.75;4.75;;;19.00;99.90;;;;;;5025002;28;20042;-70
2022/05/23 08:41:23;;;;;;;5.75;4.13;;;19.00;99.90;;;;;;5021367;28;20495;-71
2022/05/23 08:44:16;;;;;;;6.88;4.13;;;19.10;99.90;;;;;;5024625;28;20647;-71
2022/05/23 08:47:29;;;;;;;7.18;4.72;;;19.20;99.90;;;;;;5024054;28;20745;-70
2022/05/23 08:50:00;;;;;;;;;;;19.20;99.90;;;;;;4991255;28;20064;-68
2022/05/23 08:52:40;;;;;;;7.15;4.35;;;19.20;99.90;;;;;;5023877;28;20031;-68
2022/05/23 08:55:19;;;;;;;7.65;4.53;;;19.20;99.90;;;;;;5017605;28;20052;-68
2022/05/23 08:58:00;;;;;;;6.70;4.82;;;19.30;99.90;;;;;;5018058;28;20045;-68
2022/05/23 09:00:30;;;;;;;7.05;4.55;;;19.50;99.90;;;;;;5024439;28;20065;-69
2022/05/23 09:03:15;;;;;;;7.93;4.00;;;19.60;99.90;;;;;;5024137;28;20056;-69
2022/05/23 09:05:45;;;;;;;11.05;4.65;;;19.80;99.90;;;;;;5021843;28;20049;-69
2022/05/23 09:08:16;;;;;;;5.82;4.63;;;19.80;99.90;;;;;;5019731;28;20041;-71
2022/05/23 09:10:49;;;;;;;12.25;4.88;;;19.90;99.90;;;;;;5023356;28;20040;-70
2022/05/23 09:13:16;;;;;;;7.50;4.88;;;20.10;99.90;;;;;;5024074;28;20057;-69
2022/05/23 09:15:43;;;;;;;8.60;4.97;;;19.90;99.90;;;;;;5024914;28;20041;-68
2022/05/23 09:18:16;;;;;;;7.38;5.00;;;19.90;99.90;;;;;;5029007;28;20057;-69
2022/05/23 09:20:48;;;;;;;6.60;4.57;;;19.90;99.90;;;;;;5023766;28;20038;-68
2022/05/23 09:23:30;;;;;;;6.22;3.97;;;20.00;99.90;;;;;;5023193;28;20549;-69
2022/05/23 09:25:56;;;;;;;7.18;4.93;;;20.10;99.90;;;;;;5024247;28;20096;-68
2022/05/23 09:28:31;;;;;;;7.40;4.25;;;20.20;99.90;;;;;;5015311;28;20056;-69
2022/05/23 09:31:19;;;;;;;5.68;4.53;;;20.30;99.90;;;;;;5018946;28;20381;-69
2022/05/23 09:33:47;;;;;;;5.28;4.45;;;20.40;99.90;;;;;;5006178;28;20403;-69
2022/05/23 09:36:22;;;;;;;5.60;4.97;;;20.50;99.90;;;;;;5013243;28;20132;-68
2022/05/23 09:38:51;;;;;;;5.60;4.50;;;20.70;99.90;;;;;;5026498;28;20045;-69
2022/05/23 09:41:29;;;;;;;9.02;5.10;;;20.80;99.90;;;;;;5026881;28;20137;-69
2022/05/23 09:49:24;;;;;;;5.75;4.45;;;21.10;99.90;;;;;;5022559;28;20049;-68
2022/05/23 09:51:56;;;;;;;8.55;4.38;;;21.30;99.90;;;;;;5029196;28;20711;-69
2022/05/23 09:54:46;;;;;;;7.15;4.20;;;21.40;99.90;;;;;;5027488;28;20411;-70
2022/05/23 09:57:36;;;;;;;7.97;3.95;;;21.50;99.90;;;;;;5020153;28;20449;-69
2022/05/23 10:00:17;;;;;;;8.18;5.20;;;21.50;99.90;;;;;;5023624;28;20080;-70
2022/05/23 10:03:01;;;;;;;11.82;4.93;;;21.40;99.90;;;;;;5021706;28;20480;-70
2022/05/23 10:05:41;;;;;;;5.93;4.63;;;21.40;99.90;;;;;;5018943;28;20060;-70
2022/05/23 10:08:12;;;;;;;5.13;3.65;;;21.40;99.90;;;;;;5015593;28;20038;-70
2022/05/23 10:10:51;;;;;;;4.57;3.63;;;21.40;99.90;;;;;;5022999;28;20518;-70
2022/05/23 10:13:17;;;;;;;8.93;4.28;;;21.40;99.90;;;;;;5023058;28;20060;-70
2022/05/23 10:15:52;;;;;;;5.35;3.30;;;21.40;99.90;;;;;;5019957;28;20045;-70
2022/05/23 10:18:25;;;;;;;4.93;3.08;;;21.40;99.90;;;;;;5020176;28;20586;-70
2022/05/23 10:20:52;;;;;;;5.32;3.63;;;21.50;99.90;;;;;;5025089;28;20045;-70
2022/05/23 10:23:30;;;;;;;6.40;3.05;;;21.60;99.90;;;;;;5021810;28;20041;-70
2022/05/23 10:26:15;;;;;;;6.40;3.45;;;21.70;99.90;;;;;;5023415;28;20428;-70
2022/05/23 10:28:50;;;;;;;6.93;2.95;;;21.90;99.90;;;;;;5021413;28;20503;-70
2022/05/23 10:31:26;;;;;;;6.00;2.88;;;22.20;99.90;;;;;;5023791;28;20080;-70
2022/05/23 10:34:01;;;;;;;5.07;2.85;;;22.60;99.90;;;;;;5024926;28;20046;-70
2022/05/23 10:36:31;;;;;;;5.00;3.00;;;22.60;99.90;;;;;;5020953;28;20502;-70
2022/05/23 10:42:08;;;;;;;5.85;2.85;;;23.30;99.90;;;;;;5016556;28;20061;-70
2022/05/23 10:44:52;;;;;;;7.82;2.53;;;23.30;99.90;;;;;;5025613;28;20061;-69
2022/05/23 10:47:42;;;;;;;3.45;2.13;;;23.40;99.90;;;;;;5025451;28;20419;-69
2022/05/23 10:50:19;;;;;;;5.88;2.53;;;23.40;99.90;;;;;;5039301;28;20046;-70
2022/05/23 10:53:07;;;;;;;5.93;3.03;;;23.40;99.90;;;;;;5024437;28;20053;-70
2022/05/23 10:55:40;;;;;;;3.63;2.38;;;23.50;99.90;;;;;;5026592;28;20053;-70
2022/05/23 10:58:29;;;;;;;4.07;2.30;;;23.70;99.90;;;;;;5018638;28;20053;-71
2022/05/23 11:01:37;;;;;;;3.53;2.30;;;23.80;99.90;;;;;;5021049;28;20103;-69
2022/05/23 11:04:32;;;;;;;3.53;2.35;;;23.80;99.90;;;;;;5023288;28;20488;-69
2022/05/23 11:06:58;;;;;;;8.13;2.20;;;23.80;97.10;;;;;;5023371;28;20064;-68
2022/05/23 11:09:52;;;;;;;5.70;2.55;;;23.90;99.90;;;;;;5027612;28;20391;-68
2022/05/23 11:12:23;;;;;;;5.32;2.17;;;23.80;99.90;;;;;;5025371;28;20128;-68
2022/05/23 11:15:14;;;;;;;4.13;2.00;;;23.70;99.10;;;;;;5025996;28;20466;-68
2022/05/23 11:18:19;;;;;;;4.18;2.13;;;23.80;99.90;;;;;;5026608;28;20045;-68
2022/05/23 11:20:48;;;;;;;5.00;2.70;;;24.00;99.90;;;;;;4988325;28;20108;-69
2022/05/23 11:23:33;;;;;;;4.63;2.20;;;24.10;99.90;;;;;;4997493;28;20436;-68
2022/05/23 11:26:15;;;;;;;4.45;2.00;;;24.20;98.90;;;;;;5009330;28;20061;-68
2022/05/23 11:35:10;;;;;;;4.50;2.40;;;24.20;95.60;;;;;;5039632;28;20054;-69
2022/05/23 11:37:43;;;;;;;6.35;2.97;;;24.30;98.80;;;;;;5026588;28;20053;-68
2022/05/23 11:40:33;;;;;;;5.13;2.20;;;24.30;97.20;;;;;;5025795;28;20092;-68
2022/05/23 11:43:05;;;;;;;3.95;2.22;;;24.40;96.00;;;;;;5026256;28;20185;-68
2022/05/23 11:48:37;;;;;;;4.37;2.17;;;24.70;97.00;;;;;;5026333;28;20484;-68
2022/05/23 11:51:21;;;;;;;3.43;2.00;;;24.70;96.80;;;;;;5025524;28;20561;-68
2022/05/23 11:54:25;;;;;;;5.05;1.60;;;24.60;94.30;;;;;;5026149;28;20100;-68
2022/05/23 11:57:04;;;;;;;4.90;1.80;;;24.50;94.10;;;;;;5023779;28;20053;-67
2022/05/23 11:59:30;;;;;;;3.97;2.30;;;24.50;97.40;;;;;;5026339;28;20061;-69
2022/05/23 12:02:20;;;;;;;4.28;1.98;;;24.50;96.10;;;;;;5026386;28;20061;-68
2022/05/23 12:04:49;;;;;;;2.30;1.52;;;24.60;95.40;;;;;;5027862;28;20056;-67
2022/05/23 12:07:44;;;;;;;6.93;2.67;;;24.70;93.90;;;;;;5026663;28;20045;-67
2022/05/23 12:10:22;;;;;;;2.60;1.67;;;24.80;93.00;;;;;;5027056;28;20506;-68
2022/05/23 12:12:57;;;;;;;3.10;1.60;;;24.80;82.50;;;;;;5027644;28;20049;-68
2022/05/23 12:15:47;;;;;;;4.47;1.77;;;24.70;86.50;;;;;;5026609;28;20511;-67
2022/05/23 12:18:22;;;;;;;3.65;1.98;;;24.60;84.90;;;;;;5026035;28;20329;-68
2022/05/23 12:20:54;;;;;;;3.63;1.77;;;24.60;92.00;;;;;;5025365;28;20081;-68
2022/05/23 12:23:42;;;;;;;2.85;2.08;;;24.30;93.10;;;;;;5025479;28;20061;-68
2022/05/23 12:26:11;;;;;;;3.63;1.95;;;24.10;90.40;;;;;;5026702;28;20542;-68
2022/05/23 12:28:48;;;;;;;2.05;1.48;;;23.90;92.60;;;;;;5026651;28;20052;-69
2022/05/23 12:31:23;;;;;;;3.75;1.88;;;23.80;94.80;;;;;;5026501;28;20553;-68
2022/05/23 12:34:12;;;;;;;5.32;1.80;;;23.60;95.00;;;;;;5026767;28;20445;-68
2022/05/23 12:36:51;;;;;;;3.25;1.85;;;23.50;94.70;;;;;;5026005;28;20048;-69
2022/05/23 12:39:47;;;;;;;3.15;1.38;;;23.50;93.10;;;;;;5024984;28;20392;-68
2022/05/23 12:42:37;;;;;;;4.72;1.83;;;23.50;95.20;;;;;;5025683;28;20463;-68
2022/05/23 12:45:15;;;;;;;2.92;1.42;;;23.40;94.80;;;;;;5026818;28;20085;-69
2022/05/23 12:48:26;;;;;;;2.55;1.77;;;23.40;96.80;;;;;;5026966;28;20053;-68
2022/05/23 12:51:03;;;;;;;2.60;1.85;;;23.40;96.70;;;;;;5025166;28;20061;-68
2022/05/23 12:53:44;;;;;;;3.47;1.50;;;23.40;97.80;;;;;;5026957;28;20093;-68
2022/05/23 12:56:43;;;;;;;3.25;1.45;;;23.30;93.60;;;;;;5024591;28;20053;-68
2022/05/23 12:59:42;;;;;;;5.15;1.55;;;23.30;95.30;;;;;;5026481;28;20075;-68
2022/05/23 13:02:33;;;;;;;6.45;1.98;;;23.30;96.10;;;;;;5026473;28;20146;-68
2022/05/23 13:05:17;;;;;;;3.38;1.38;;;23.20;97.30;;;;;;5022743;28;20415;-69
2022/05/23 13:08:02;;;;;;;4.07;1.70;;;23.30;97.20;;;;;;5025233;28;20052;-68
2022/05/23 13:10:37;;;;;;;3.40;2.35;;;23.20;98.70;;;;;;5026006;28;20056;-68
2022/05/23 13:13:26;;;;;;;3.15;1.85;;;23.20;99.90;;;;;;5026221;28;20057;-68
2022/05/23 13:15:51;;;;;;;2.42;2.28;;;23.10;99.90;;;;;;5025301;28;20046;-67
2022/05/23 13:23:52;;;;;;;3.55;2.28;;;22.80;99.90;;;;;;5026439;28;20053;-68
2022/05/23 13:26:19;;;;;;;9.30;2.28;;;22.80;99.90;;;;;;5026202;28;20085;-68
2022/05/23 13:28:50;;;;;;;5.65;2.58;;;22.70;99.90;;;;;;5026225;28;20041;-68
2022/05/23 13:31:28;;;;;;;2.97;2.40;;;23.80;99.90;;;;;;5025647;28;20053;-68
2022/05/23 13:33:57;;;;;;;4.43;2.60;;;22.70;99.90;;;;;;5041665;28;20046;-68
2022/05/23 13:36:25;;;;;;;2.80;2.50;;;22.60;99.90;;;;;;5025152;28;20494;-68
2022/05/23 13:39:05;;;;;;;3.53;2.60;;;22.60;99.90;;;;;;5025527;28;20499;-68
2022/05/23 13:41:31;;;;;;;5.53;2.80;;;22.50;99.90;;;;;;5026805;28;20050;-69
2022/05/23 13:43:58;;;;;;;6.00;2.72;;;22.50;99.90;;;;;;5026497;28;20087;-68
2022/05/23 13:46:36;;;;;;;3.33;2.30;;;22.50;99.90;;;;;;5025809;28;20483;-68
2022/05/23 13:49:08;;;;;;;4.63;2.65;;;22.50;99.90;;;;;;5025229;28;20063;-68
2022/05/23 13:51:56;;;;;;;3.53;2.70;;;22.50;99.90;;;;;;5024928;28;20103;-69
2022/05/23 13:54:50;;;;;;;6.03;2.65;;;22.50;99.90;;;;;;5020152;28;20058;-68
2022/05/23 13:57:35;;;;;;;3.92;2.80;;;22.50;99.90;;;;;;5021481;28;20053;-68
2022/05/23 14:00:13;;;;;;;4.60;2.13;;;22.50;99.90;;;;;;5022344;28;20049;-69
2022/05/23 14:02:53;;;;;;;2.17;1.80;;;22.50;99.90;;;;;;5021626;28;20065;-68
2022/05/23 14:05:20;;;;;;;9.55;2.47;;;22.60;99.90;;;;;;5019309;28;20423;-67
2022/05/23 14:07:49;;;;;;;4.28;2.30;;;22.70;99.90;;;;;;5022271;28;20052;-68